sensor_id;sensor_type;location;lat;lon;timestamp;P1;durP1;ratioP1;P2;durP2;ratioP2
12459;SDS011;6295;49.452;8.466;2024-02-26T09:14:39;3.37;;;3.07;;
12459;SDS011;6295;49.452;8.466;2024-02-26T09:18:42;3.40;;;2.70;;
12459;SDS011;6295;49.452;8.466;2024-02-26T09:22:44;4.13;;;2.10;;
12459;SDS011;6295;49.452;8.466;2024-02-26T09:26:47;1.83;;;1.67;;
12459;SDS011;6295;49.452;8.466;2024-02-26T09:30:50;2.63;;;1.80;;
12459;SDS011;6295;49.452;8.466;2024-02-26T09:34:52;2.50;;;1.80;;
12459;SDS011;6295;49.452;8.466;2024-02-26T09:38:54;1.50;;;1.30;;
12459;SDS011;6295;49.452;8.466;2024-02-26T09:42:59;1.70;;;1.43;;
12459;SDS011;6295;49.452;8.466;2024-02-26T09:47:04;1.57;;;1.40;;
12459;SDS011;6295;49.452;8.466;2024-02-26T09:51:09;2.00;;;1.60;;
12459;SDS011;6295;49.452;8.466;2024-02-26T09:55:13;1.90;;;1.60;;
12459;SDS011;6295;49.452;8.466;2024-02-26T09:59:18;1.80;;;1.50;;
12459;SDS011;6295;49.452;8.466;2024-02-26T10:03:28;1.60;;;1.50;;
12459;SDS011;6295;49.452;8.466;2024-02-26T10:07:33;1.93;;;1.50;;
12459;SDS011;6295;49.452;8.466;2024-02-26T10:11:36;2.40;;;1.50;;
12459;SDS011;6295;49.452;8.466;2024-02-26T10:15:43;2.73;;;1.60;;
12459;SDS011;6295;49.452;8.466;2024-02-26T10:19:46;1.70;;;1.50;;
12459;SDS011;6295;49.452;8.466;2024-02-26T10:23:51;1.67;;;1.30;;
12459;SDS011;6295;49.452;8.466;2024-02-26T10:27:54;1.63;;;1.53;;
12459;SDS011;6295;49.452;8.466;2024-02-26T10:31:56;1.73;;;1.63;;
12459;SDS011;6295;49.452;8.466;2024-02-26T10:36:00;1.60;;;1.50;;
12459;SDS011;6295;49.452;8.466;2024-02-26T10:40:02;1.93;;;1.50;;
12459;SDS011;6295;49.452;8.466;2024-02-26T10:44:04;1.50;;;1.30;;
12459;SDS011;6295;49.452;8.466;2024-02-26T10:48:07;2.17;;;1.50;;
12459;SDS011;6295;49.452;8.466;2024-02-26T10:52:13;1.50;;;1.40;;
12459;SDS011;6295;49.452;8.466;2024-02-26T10:56:16;2.23;;;1.40;;
12459;SDS011;6295;49.452;8.466;2024-02-26T11:00:20;1.40;;;1.27;;
12459;SDS011;6295;49.452;8.466;2024-02-26T11:04:23;1.57;;;1.27;;
12459;SDS011;6295;49.452;8.466;2024-02-26T11:08:28;1.50;;;1.23;;
12459;SDS011;6295;49.452;8.466;2024-02-26T11:12:33;1.30;;;1.20;;
12459;SDS011;6295;49.452;8.466;2024-02-26T11:16:39;1.60;;;1.40;;
12459;SDS011;6295;49.452;8.466;2024-02-26T11:20:43;1.30;;;1.10;;
12459;SDS011;6295;49.452;8.466;2024-02-26T11:24:50;1.17;;;1.07;;
12459;SDS011;6295;49.452;8.466;2024-02-26T11:28:52;2.30;;;1.10;;
12459;SDS011;6295;49.452;8.466;2024-02-26T11:32:55;1.50;;;1.20;;
12459;SDS011;6295;49.452;8.466;2024-02-26T11:36:58;1.20;;;1.10;;
12459;SDS011;6295;49.452;8.466;2024-02-26T11:41:12;1.10;;;1.00;;
12459;SDS011;6295;49.452;8.466;2024-02-26T11:49:54;1.10;;;1.00;;
12459;SDS011;6295;49.452;8.466;2024-02-26T11:53:56;2.40;;;1.20;;
12459;SDS011;6295;49.452;8.466;2024-02-26T11:58:00;1.30;;;1.10;;
12459;SDS011;6295;49.452;8.466;2024-02-26T12:02:03;1.30;;;1.07;;
12459;SDS011;6295;49.452;8.466;2024-02-26T12:06:08;2.00;;;1.10;;
12459;SDS011;6295;49.452;8.466;2024-02-26T12:10:23;1.30;;;1.20;;
12459;SDS011;6295;49.452;8.466;2024-02-26T12:14:28;1.30;;;1.20;;
12459;SDS011;6295;49.452;8.466;2024-02-26T12:18:30;1.30;;;1.20;;
12459;SDS011;6295;49.452;8.466;2024-02-26T12:22:32;1.40;;;1.13;;
12459;SDS011;6295;49.452;8.466;2024-02-26T12:26:37;1.27;;;1.17;;
12459;SDS011;6295;49.452;8.466;2024-02-26T12:30:40;1.20;;;1.10;;
12459;SDS011;6295;49.452;8.466;2024-02-26T12:34:43;1.30;;;1.20;;
12459;SDS011;6295;49.452;8.466;2024-02-26T12:38:45;1.40;;;1.30;;
12459;SDS011;6295;49.452;8.466;2024-02-26T12:42:48;1.10;;;1.00;;
12459;SDS011;6295;49.452;8.466;2024-02-26T12:46:51;1.10;;;1.00;;
12459;SDS011;6295;49.452;8.466;2024-02-26T12:51:03;1.57;;;1.30;;
12459;SDS011;6295;49.452;8.466;2024-02-26T12:55:06;1.40;;;1.30;;
12459;SDS011;6295;49.452;8.466;2024-02-26T12:59:08;1.73;;;1.20;;
12459;SDS011;6295;49.452;8.466;2024-02-26T13:03:12;1.40;;;1.30;;
12459;SDS011;6295;49.452;8.466;2024-02-26T13:07:14;1.70;;;1.47;;
12459;SDS011;6295;49.452;8.466;2024-02-26T13:11:17;1.83;;;1.40;;
12459;SDS011;6295;49.452;8.466;2024-02-26T13:15:20;1.37;;;1.20;;
12459;SDS011;6295;49.452;8.466;2024-02-26T13:19:24;1.30;;;1.20;;
12459;SDS011;6295;49.452;8.466;2024-02-26T13:23:27;1.17;;;1.00;;
12459;SDS011;6295;49.452;8.466;2024-02-26T13:27:30;1.10;;;1.00;;
12459;SDS011;6295;49.452;8.466;2024-02-26T13:31:38;1.10;;;1.00;;
12459;SDS011;6295;49.452;8.466;2024-02-26T13:35:42;1.20;;;1.10;;
12459;SDS011;6295;49.452;8.466;2024-02-26T13:39:45;0.90;;;0.80;;
12459;SDS011;6295;49.452;8.466;2024-02-26T13:43:47;2.07;;;1.10;;
12459;SDS011;6295;49.452;8.466;2024-02-26T13:47:52;1.20;;;1.07;;
12459;SDS011;6295;49.452;8.466;2024-02-26T13:51:55;1.10;;;0.90;;
12459;SDS011;6295;49.452;8.466;2024-02-26T13:55:57;1.40;;;1.00;;
12459;SDS011;6295;49.452;8.466;2024-02-26T14:00:02;1.40;;;1.00;;
12459;SDS011;6295;49.452;8.466;2024-02-26T14:04:05;1.23;;;0.90;;
12459;SDS011;6295;49.452;8.466;2024-02-26T14:08:13;1.17;;;0.87;;
12459;SDS011;6295;49.452;8.466;2024-02-26T14:12:18;0.97;;;0.80;;
12459;SDS011;6295;49.452;8.466;2024-02-26T14:16:20;0.80;;;0.70;;
12459;SDS011;6295;49.452;8.466;2024-02-26T14:20:23;1.03;;;0.80;;
12459;SDS011;6295;49.452;8.466;2024-02-26T14:24:29;1.00;;;0.80;;
12459;SDS011;6295;49.452;8.466;2024-02-26T14:28:31;2.30;;;0.80;;
12459;SDS011;6295;49.452;8.466;2024-02-26T14:32:35;0.80;;;0.80;;
12459;SDS011;6295;49.452;8.466;2024-02-26T14:36:39;1.10;;;0.90;;
12459;SDS011;6295;49.452;8.466;2024-02-26T14:40:44;1.47;;;0.83;;
12459;SDS011;6295;49.452;8.466;2024-02-26T14:44:47;1.03;;;0.83;;
12459;SDS011;6295;49.452;8.466;2024-02-26T14:48:50;1.30;;;0.90;;
12459;SDS011;6295;49.452;8.466;2024-02-26T14:52:52;0.73;;;0.73;;
12459;SDS011;6295;49.452;8.466;2024-02-26T14:56:56;1.33;;;0.90;;
12459;SDS011;6295;49.452;8.466;2024-02-26T15:01:00;0.80;;;0.80;;
12459;SDS011;6295;49.452;8.466;2024-02-26T15:05:02;0.90;;;0.70;;
12459;SDS011;6295;49.452;8.466;2024-02-26T15:09:08;0.70;;;0.70;;
12459;SDS011;6295;49.452;8.466;2024-02-26T15:13:13;1.10;;;0.90;;
12459;SDS011;6295;49.452;8.466;2024-02-26T15:17:18;1.00;;;0.83;;
12459;SDS011;6295;49.452;8.466;2024-02-26T15:21:20;0.80;;;0.80;;
12459;SDS011;6295;49.452;8.466;2024-02-26T15:25:22;0.77;;;0.70;;
12459;SDS011;6295;49.452;8.466;2024-02-26T15:29:26;0.80;;;0.80;;
12459;SDS011;6295;49.452;8.466;2024-02-26T15:33:28;0.80;;;0.80;;
12459;SDS011;6295;49.452;8.466;2024-02-26T15:37:30;1.77;;;1.13;;
12459;SDS011;6295;49.452;8.466;2024-02-26T15:41:34;2.50;;;1.30;;
12459;SDS011;6295;49.452;8.466;2024-02-26T15:45:40;1.20;;;1.10;;
12459;SDS011;6295;49.452;8.466;2024-02-26T15:49:42;0.70;;;0.70;;
12459;SDS011;6295;49.452;8.466;2024-02-26T15:53:45;1.13;;;0.90;;
12459;SDS011;6295;49.452;8.466;2024-02-26T15:57:49;1.10;;;0.90;;
12459;SDS011;6295;49.452;8.466;2024-02-26T16:01:53;2.07;;;1.40;;
12459;SDS011;6295;49.452;8.466;2024-02-26T16:05:56;2.07;;;1.50;;
12459;SDS011;6295;49.452;8.466;2024-02-26T16:09:58;1.40;;;1.30;;
12459;SDS011;6295;49.452;8.466;2024-02-26T16:18:29;2.53;;;1.57;;
12459;SDS011;6295;49.452;8.466;2024-02-26T16:22:32;3.60;;;2.20;;
12459;SDS011;6295;49.452;8.466;2024-02-26T16:26:36;2.27;;;1.80;;
12459;SDS011;6295;49.452;8.466;2024-02-26T16:30:38;2.57;;;1.63;;
12459;SDS011;6295;49.452;8.466;2024-02-26T16:34:42;1.83;;;1.33;;
12459;SDS011;6295;49.452;8.466;2024-02-26T16:38:44;1.77;;;1.30;;
12459;SDS011;6295;49.452;8.466;2024-02-26T16:42:46;2.73;;;1.30;;
12459;SDS011;6295;49.452;8.466;2024-02-26T16:46:49;2.30;;;1.80;;
12459;SDS011;6295;49.452;8.466;2024-02-26T16:50:57;3.50;;;2.77;;
12459;SDS011;6295;49.452;8.466;2024-02-26T16:55:02;3.73;;;3.20;;
